sensor_id;sensor_type;location;lat;lon;timestamp;P1;durP1;ratioP1;P2;durP2;ratioP2
9420;SDS011;4749;51.398;5.466;2023-11-22T00:00:39;34.33;;;22.87;;
9420;SDS011;4749;51.398;5.466;2023-11-22T00:03:07;36.80;;;22.87;;
9420;SDS011;4749;51.398;5.466;2023-11-22T00:05:35;36.33;;;23.13;;
9420;SDS011;4749;51.398;5.466;2023-11-22T00:08:02;38.13;;;24.00;;
9420;SDS011;4749;51.398;5.466;2023-11-22T00:10:30;36.20;;;22.87;;
9420;SDS011;4749;51.398;5.466;2023-11-22T00:12:57;38.23;;;23.93;;
9420;SDS011;4749;51.398;5.466;2023-11-22T00:15:25;37.13;;;22.93;;
9420;SDS011;4749;51.398;5.466;2023-11-22T00:17:52;32.97;;;22.53;;
9420;SDS011;4749;51.398;5.466;2023-11-22T00:20:19;36.40;;;24.07;;
9420;SDS011;4749;51.398;5.466;2023-11-22T00:22:47;33.63;;;22.93;;
9420;SDS011;4749;51.398;5.466;2023-11-22T00:25:14;34.07;;;23.13;;
9420;SDS011;4749;51.398;5.466;2023-11-22T00:27:41;33.13;;;23.73;;
9420;SDS011;4749;51.398;5.466;2023-11-22T00:30:09;39.97;;;24.97;;
9420;SDS011;4749;51.398;5.466;2023-11-22T00:32:36;35.73;;;23.00;;
9420;SDS011;4749;51.398;5.466;2023-11-22T00:35:04;33.40;;;23.50;;
9420;SDS011;4749;51.398;5.466;2023-11-22T00:37:31;36.07;;;23.60;;
9420;SDS011;4749;51.398;5.466;2023-11-22T00:39:59;34.30;;;22.80;;
9420;SDS011;4749;51.398;5.466;2023-11-22T00:42:27;38.07;;;23.40;;
9420;SDS011;4749;51.398;5.466;2023-11-22T00:44:54;35.50;;;22.50;;
9420;SDS011;4749;51.398;5.466;2023-11-22T00:47:21;33.93;;;21.77;;
9420;SDS011;4749;51.398;5.466;2023-11-22T00:49:49;32.43;;;21.43;;
9420;SDS011;4749;51.398;5.466;2023-11-22T00:52:16;30.83;;;22.10;;
9420;SDS011;4749;51.398;5.466;2023-11-22T00:54:43;35.23;;;22.00;;
9420;SDS011;4749;51.398;5.466;2023-11-22T00:57:10;31.43;;;21.47;;
9420;SDS011;4749;51.398;5.466;2023-11-22T00:59:38;30.73;;;22.10;;
9420;SDS011;4749;51.398;5.466;2023-11-22T01:02:06;28.73;;;20.50;;
9420;SDS011;4749;51.398;5.466;2023-11-22T01:04:35;30.13;;;21.77;;
9420;SDS011;4749;51.398;5.466;2023-11-22T01:07:03;28.80;;;21.13;;
9420;SDS011;4749;51.398;5.466;2023-11-22T01:09:31;36.73;;;21.87;;
9420;SDS011;4749;51.398;5.466;2023-11-22T01:11:59;31.60;;;22.00;;
9420;SDS011;4749;51.398;5.466;2023-11-22T01:14:27;30.53;;;21.97;;
9420;SDS011;4749;51.398;5.466;2023-11-22T01:16:56;30.93;;;21.80;;
9420;SDS011;4749;51.398;5.466;2023-11-22T01:19:23;30.93;;;21.93;;
9420;SDS011;4749;51.398;5.466;2023-11-22T01:21:50;33.20;;;22.50;;
9420;SDS011;4749;51.398;5.466;2023-11-22T01:24:17;34.03;;;22.87;;
9420;SDS011;4749;51.398;5.466;2023-11-22T01:26:44;31.37;;;22.13;;
9420;SDS011;4749;51.398;5.466;2023-11-22T01:29:11;34.00;;;22.77;;
9420;SDS011;4749;51.398;5.466;2023-11-22T01:31:39;32.23;;;21.83;;
9420;SDS011;4749;51.398;5.466;2023-11-22T01:34:08;34.67;;;23.00;;
9420;SDS011;4749;51.398;5.466;2023-11-22T01:36:38;31.43;;;21.80;;
9420;SDS011;4749;51.398;5.466;2023-11-22T01:39:13;33.73;;;21.10;;
9420;SDS011;4749;51.398;5.466;2023-11-22T01:41:40;31.00;;;21.57;;
9420;SDS011;4749;51.398;5.466;2023-11-22T01:44:11;33.83;;;22.67;;
9420;SDS011;4749;51.398;5.466;2023-11-22T01:46:38;34.20;;;23.47;;
9420;SDS011;4749;51.398;5.466;2023-11-22T01:49:06;33.27;;;23.00;;
9420;SDS011;4749;51.398;5.466;2023-11-22T01:51:39;32.93;;;21.83;;
9420;SDS011;4749;51.398;5.466;2023-11-22T01:54:07;34.63;;;23.23;;
9420;SDS011;4749;51.398;5.466;2023-11-22T01:56:36;34.43;;;22.67;;
9420;SDS011;4749;51.398;5.466;2023-11-22T01:59:05;31.47;;;22.27;;
9420;SDS011;4749;51.398;5.466;2023-11-22T02:01:32;34.83;;;22.70;;
9420;SDS011;4749;51.398;5.466;2023-11-22T02:03:59;36.77;;;23.33;;
9420;SDS011;4749;51.398;5.466;2023-11-22T02:06:27;35.60;;;23.40;;
9420;SDS011;4749;51.398;5.466;2023-11-22T02:08:58;35.47;;;23.63;;
9420;SDS011;4749;51.398;5.466;2023-11-22T02:11:25;35.73;;;24.30;;
9420;SDS011;4749;51.398;5.466;2023-11-22T02:13:54;36.83;;;23.73;;
9420;SDS011;4749;51.398;5.466;2023-11-22T02:16:21;34.67;;;23.07;;
9420;SDS011;4749;51.398;5.466;2023-11-22T02:18:49;33.83;;;23.57;;
9420;SDS011;4749;51.398;5.466;2023-11-22T02:21:17;35.00;;;23.13;;
9420;SDS011;4749;51.398;5.466;2023-11-22T02:23:44;35.03;;;24.67;;
9420;SDS011;4749;51.398;5.466;2023-11-22T02:26:13;39.00;;;23.73;;
9420;SDS011;4749;51.398;5.466;2023-11-22T02:28:42;35.63;;;24.53;;
9420;SDS011;4749;51.398;5.466;2023-11-22T02:31:09;33.37;;;23.87;;
9420;SDS011;4749;51.398;5.466;2023-11-22T02:33:36;33.73;;;23.53;;
9420;SDS011;4749;51.398;5.466;2023-11-22T02:36:04;36.87;;;23.30;;
9420;SDS011;4749;51.398;5.466;2023-11-22T02:38:34;37.90;;;24.17;;
9420;SDS011;4749;51.398;5.466;2023-11-22T02:41:01;42.97;;;25.80;;
9420;SDS011;4749;51.398;5.466;2023-11-22T02:43:31;37.97;;;25.73;;
9420;SDS011;4749;51.398;5.466;2023-11-22T02:45:58;37.47;;;25.30;;
9420;SDS011;4749;51.398;5.466;2023-11-22T02:48:25;41.13;;;26.10;;
9420;SDS011;4749;51.398;5.466;2023-11-22T02:50:52;38.93;;;25.50;;
9420;SDS011;4749;51.398;5.466;2023-11-22T02:53:20;38.13;;;25.17;;
9420;SDS011;4749;51.398;5.466;2023-11-22T02:55:48;40.67;;;26.97;;
9420;SDS011;4749;51.398;5.466;2023-11-22T02:58:15;43.37;;;27.30;;
9420;SDS011;4749;51.398;5.466;2023-11-22T03:00:43;36.60;;;24.30;;
9420;SDS011;4749;51.398;5.466;2023-11-22T03:03:11;37.03;;;24.60;;
9420;SDS011;4749;51.398;5.466;2023-11-22T03:05:40;44.60;;;26.60;;
9420;SDS011;4749;51.398;5.466;2023-11-22T03:08:07;41.57;;;25.00;;
9420;SDS011;4749;51.398;5.466;2023-11-22T03:10:36;37.90;;;24.50;;
9420;SDS011;4749;51.398;5.466;2023-11-22T03:13:04;38.30;;;24.53;;
9420;SDS011;4749;51.398;5.466;2023-11-22T03:15:31;33.30;;;22.57;;
9420;SDS011;4749;51.398;5.466;2023-11-22T03:17:58;40.73;;;26.50;;
9420;SDS011;4749;51.398;5.466;2023-11-22T03:20:27;33.37;;;22.13;;
9420;SDS011;4749;51.398;5.466;2023-11-22T03:22:54;34.97;;;23.07;;
9420;SDS011;4749;51.398;5.466;2023-11-22T03:25:21;35.33;;;24.60;;
9420;SDS011;4749;51.398;5.466;2023-11-22T03:27:49;38.53;;;24.50;;
9420;SDS011;4749;51.398;5.466;2023-11-22T03:30:18;33.03;;;23.40;;
9420;SDS011;4749;51.398;5.466;2023-11-22T03:32:46;45.20;;;24.73;;
9420;SDS011;4749;51.398;5.466;2023-11-22T03:35:13;35.23;;;22.70;;
9420;SDS011;4749;51.398;5.466;2023-11-22T03:37:40;36.23;;;24.43;;
9420;SDS011;4749;51.398;5.466;2023-11-22T03:40:08;36.07;;;23.83;;
9420;SDS011;4749;51.398;5.466;2023-11-22T03:42:36;32.10;;;21.80;;
9420;SDS011;4749;51.398;5.466;2023-11-22T03:45:05;31.10;;;21.43;;
9420;SDS011;4749;51.398;5.466;2023-11-22T03:47:33;34.23;;;21.73;;
9420;SDS011;4749;51.398;5.466;2023-11-22T03:50:05;32.83;;;21.17;;
9420;SDS011;4749;51.398;5.466;2023-11-22T03:52:33;37.03;;;22.77;;
9420;SDS011;4749;51.398;5.466;2023-11-22T03:55:00;33.63;;;22.60;;
9420;SDS011;4749;51.398;5.466;2023-11-22T03:57:27;34.20;;;23.27;;
9420;SDS011;4749;51.398;5.466;2023-11-22T03:59:54;35.87;;;22.53;;
9420;SDS011;4749;51.398;5.466;2023-11-22T04:02:21;34.23;;;21.97;;
9420;SDS011;4749;51.398;5.466;2023-11-22T04:04:49;31.33;;;22.00;;
9420;SDS011;4749;51.398;5.466;2023-11-22T04:07:16;35.50;;;22.70;;
9420;SDS011;4749;51.398;5.466;2023-11-22T04:09:44;36.87;;;23.90;;
9420;SDS011;4749;51.398;5.466;2023-11-22T04:12:11;38.20;;;23.77;;
9420;SDS011;4749;51.398;5.466;2023-11-22T04:14:38;42.80;;;24.50;;
9420;SDS011;4749;51.398;5.466;2023-11-22T04:17:05;31.77;;;21.67;;
9420;SDS011;4749;51.398;5.466;2023-11-22T04:19:33;33.10;;;21.73;;
9420;SDS011;4749;51.398;5.466;2023-11-22T04:22:00;32.40;;;21.43;;
9420;SDS011;4749;51.398;5.466;2023-11-22T04:24:28;35.80;;;22.03;;
9420;SDS011;4749;51.398;5.466;2023-11-22T04:26:55;37.90;;;22.67;;
9420;SDS011;4749;51.398;5.466;2023-11-22T04:29:22;33.53;;;22.77;;
9420;SDS011;4749;51.398;5.466;2023-11-22T04:31:49;31.33;;;21.33;;
9420;SDS011;4749;51.398;5.466;2023-11-22T04:34:16;35.17;;;22.10;;
9420;SDS011;4749;51.398;5.466;2023-11-22T04:36:43;33.10;;;22.33;;
9420;SDS011;4749;51.398;5.466;2023-11-22T04:39:13;36.93;;;22.43;;
9420;SDS011;4749;51.398;5.466;2023-11-22T04:41:40;34.80;;;22.47;;
9420;SDS011;4749;51.398;5.466;2023-11-22T04:44:07;35.73;;;22.27;;
9420;SDS011;4749;51.398;5.466;2023-11-22T04:46:34;37.23;;;23.30;;
9420;SDS011;4749;51.398;5.466;2023-11-22T04:49:02;29.97;;;21.00;;
9420;SDS011;4749;51.398;5.466;2023-11-22T04:51:29;31.20;;;20.57;;
9420;SDS011;4749;51.398;5.466;2023-11-22T04:53:56;30.97;;;20.60;;
9420;SDS011;4749;51.398;5.466;2023-11-22T04:56:24;31.80;;;20.80;;
9420;SDS011;4749;51.398;5.466;2023-11-22T04:58:51;34.73;;;21.23;;
9420;SDS011;4749;51.398;5.466;2023-11-22T05:01:18;35.83;;;23.73;;
9420;SDS011;4749;51.398;5.466;2023-11-22T05:03:48;39.60;;;23.07;;
9420;SDS011;4749;51.398;5.466;2023-11-22T05:06:15;38.67;;;24.23;;
9420;SDS011;4749;51.398;5.466;2023-11-22T05:08:43;38.63;;;24.17;;
9420;SDS011;4749;51.398;5.466;2023-11-22T05:11:10;37.13;;;23.50;;
9420;SDS011;4749;51.398;5.466;2023-11-22T05:13:37;40.23;;;23.90;;
9420;SDS011;4749;51.398;5.466;2023-11-22T05:16:04;39.97;;;25.13;;
9420;SDS011;4749;51.398;5.466;2023-11-22T05:18:32;43.07;;;25.90;;
9420;SDS011;4749;51.398;5.466;2023-11-22T05:20:59;52.73;;;28.30;;
9420;SDS011;4749;51.398;5.466;2023-11-22T05:23:26;47.90;;;28.57;;
9420;SDS011;4749;51.398;5.466;2023-11-22T05:25:53;46.73;;;26.33;;
9420;SDS011;4749;51.398;5.466;2023-11-22T05:28:21;51.87;;;27.70;;
9420;SDS011;4749;51.398;5.466;2023-11-22T05:30:49;67.23;;;30.67;;
9420;SDS011;4749;51.398;5.466;2023-11-22T05:33:16;109.43;;;33.77;;
9420;SDS011;4749;51.398;5.466;2023-11-22T05:35:43;156.07;;;39.47;;
9420;SDS011;4749;51.398;5.466;2023-11-22T05:38:10;136.80;;;36.33;;
9420;SDS011;4749;51.398;5.466;2023-11-22T05:40:38;264.17;;;46.13;;
9420;SDS011;4749;51.398;5.466;2023-11-22T05:43:05;286.77;;;45.87;;
9420;SDS011;4749;51.398;5.466;2023-11-22T05:45:38;303.93;;;45.50;;
9420;SDS011;4749;51.398;5.466;2023-11-22T05:48:05;190.40;;;37.17;;
9420;SDS011;4749;51.398;5.466;2023-11-22T05:50:33;187.63;;;37.37;;
9420;SDS011;4749;51.398;5.466;2023-11-22T05:53:00;161.20;;;32.20;;
9420;SDS011;4749;51.398;5.466;2023-11-22T05:55:27;328.60;;;45.70;;
9420;SDS011;4749;51.398;5.466;2023-11-22T05:57:55;226.33;;;38.20;;
9420;SDS011;4749;51.398;5.466;2023-11-22T06:00:23;182.03;;;35.23;;
9420;SDS011;4749;51.398;5.466;2023-11-22T06:02:50;255.30;;;37.50;;
9420;SDS011;4749;51.398;5.466;2023-11-22T06:05:18;238.37;;;38.63;;
9420;SDS011;4749;51.398;5.466;2023-11-22T06:07:46;283.97;;;41.80;;
9420;SDS011;4749;51.398;5.466;2023-11-22T06:10:14;281.10;;;41.67;;
9420;SDS011;4749;51.398;5.466;2023-11-22T06:12:42;236.37;;;36.80;;
9420;SDS011;4749;51.398;5.466;2023-11-22T06:15:10;366.83;;;46.03;;
9420;SDS011;4749;51.398;5.466;2023-11-22T06:17:38;270.33;;;40.10;;
9420;SDS011;4749;51.398;5.466;2023-11-22T06:20:06;342.80;;;46.10;;
9420;SDS011;4749;51.398;5.466;2023-11-22T06:22:34;172.13;;;36.10;;
9420;SDS011;4749;51.398;5.466;2023-11-22T06:25:01;357.37;;;48.57;;
9420;SDS011;4749;51.398;5.466;2023-11-22T06:29:39;209.43;;;38.23;;
9420;SDS011;4749;51.398;5.466;2023-11-22T06:32:06;187.87;;;40.47;;
9420;SDS011;4749;51.398;5.466;2023-11-22T06:34:33;213.70;;;38.67;;
9420;SDS011;4749;51.398;5.466;2023-11-22T06:37:03;200.17;;;40.77;;
9420;SDS011;4749;51.398;5.466;2023-11-22T06:39:30;230.60;;;42.10;;
9420;SDS011;4749;51.398;5.466;2023-11-22T06:41:57;215.73;;;39.37;;
9420;SDS011;4749;51.398;5.466;2023-11-22T06:44:25;141.07;;;35.07;;
9420;SDS011;4749;51.398;5.466;2023-11-22T06:46:53;118.53;;;34.00;;
9420;SDS011;4749;51.398;5.466;2023-11-22T06:49:20;144.40;;;35.53;;
9420;SDS011;4749;51.398;5.466;2023-11-22T06:51:47;136.40;;;34.10;;
9420;SDS011;4749;51.398;5.466;2023-11-22T06:54:14;90.57;;;30.97;;
9420;SDS011;4749;51.398;5.466;2023-11-22T06:56:42;160.30;;;36.30;;
9420;SDS011;4749;51.398;5.466;2023-11-22T06:59:09;152.57;;;34.57;;
9420;SDS011;4749;51.398;5.466;2023-11-22T07:01:36;155.60;;;36.27;;
9420;SDS011;4749;51.398;5.466;2023-11-22T07:04:03;235.57;;;41.90;;
9420;SDS011;4749;51.398;5.466;2023-11-22T07:06:31;254.10;;;43.90;;
9420;SDS011;4749;51.398;5.466;2023-11-22T07:08:59;275.07;;;44.97;;
9420;SDS011;4749;51.398;5.466;2023-11-22T07:11:26;161.30;;;37.87;;
9420;SDS011;4749;51.398;5.466;2023-11-22T07:13:57;292.80;;;48.17;;
9420;SDS011;4749;51.398;5.466;2023-11-22T07:16:24;234.87;;;43.47;;
9420;SDS011;4749;51.398;5.466;2023-11-22T07:18:51;176.53;;;38.43;;
9420;SDS011;4749;51.398;5.466;2023-11-22T07:21:18;317.30;;;50.93;;
9420;SDS011;4749;51.398;5.466;2023-11-22T07:23:47;309.63;;;50.07;;
9420;SDS011;4749;51.398;5.466;2023-11-22T07:26:18;240.20;;;45.17;;
9420;SDS011;4749;51.398;5.466;2023-11-22T07:28:46;280.97;;;49.17;;
9420;SDS011;4749;51.398;5.466;2023-11-22T07:31:14;220.90;;;45.83;;
9420;SDS011;4749;51.398;5.466;2023-11-22T07:33:43;198.03;;;44.73;;
9420;SDS011;4749;51.398;5.466;2023-11-22T07:36:10;260.63;;;47.40;;
9420;SDS011;4749;51.398;5.466;2023-11-22T07:38:41;224.80;;;45.27;;
9420;SDS011;4749;51.398;5.466;2023-11-22T07:41:10;219.60;;;47.83;;
9420;SDS011;4749;51.398;5.466;2023-11-22T07:43:37;157.60;;;42.17;;
9420;SDS011;4749;51.398;5.466;2023-11-22T07:46:08;231.63;;;48.23;;
9420;SDS011;4749;51.398;5.466;2023-11-22T07:48:40;281.93;;;51.33;;
9420;SDS011;4749;51.398;5.466;2023-11-22T07:51:09;222.43;;;46.13;;
9420;SDS011;4749;51.398;5.466;2023-11-22T07:53:36;280.43;;;51.97;;
9420;SDS011;4749;51.398;5.466;2023-11-22T07:56:04;225.10;;;47.60;;
9420;SDS011;4749;51.398;5.466;2023-11-22T07:58:32;220.77;;;47.43;;
9420;SDS011;4749;51.398;5.466;2023-11-22T08:01:00;189.80;;;48.23;;
9420;SDS011;4749;51.398;5.466;2023-11-22T08:03:30;166.33;;;46.07;;
9420;SDS011;4749;51.398;5.466;2023-11-22T08:05:58;181.10;;;47.03;;
9420;SDS011;4749;51.398;5.466;2023-11-22T08:08:26;158.10;;;46.40;;
9420;SDS011;4749;51.398;5.466;2023-11-22T08:10:53;138.23;;;48.10;;
9420;SDS011;4749;51.398;5.466;2023-11-22T08:13:22;124.43;;;44.47;;
9420;SDS011;4749;51.398;5.466;2023-11-22T08:15:50;141.40;;;46.50;;
9420;SDS011;4749;51.398;5.466;2023-11-22T08:18:17;162.73;;;49.37;;
9420;SDS011;4749;51.398;5.466;2023-11-22T08:20:45;121.20;;;45.17;;
9420;SDS011;4749;51.398;5.466;2023-11-22T08:23:13;123.97;;;46.43;;
9420;SDS011;4749;51.398;5.466;2023-11-22T08:25:41;156.23;;;48.87;;
9420;SDS011;4749;51.398;5.466;2023-11-22T08:28:11;130.13;;;44.77;;
9420;SDS011;4749;51.398;5.466;2023-11-22T08:30:39;118.13;;;46.63;;
9420;SDS011;4749;51.398;5.466;2023-11-22T08:33:07;115.27;;;45.73;;
9420;SDS011;4749;51.398;5.466;2023-11-22T08:35:36;116.67;;;44.73;;
9420;SDS011;4749;51.398;5.466;2023-11-22T08:38:07;106.00;;;45.10;;
9420;SDS011;4749;51.398;5.466;2023-11-22T08:40:36;109.57;;;42.30;;
9420;SDS011;4749;51.398;5.466;2023-11-22T08:43:04;102.57;;;43.00;;
9420;SDS011;4749;51.398;5.466;2023-11-22T08:45:31;110.60;;;45.60;;
9420;SDS011;4749;51.398;5.466;2023-11-22T08:48:02;110.83;;;44.33;;
9420;SDS011;4749;51.398;5.466;2023-11-22T08:50:31;111.43;;;43.73;;
9420;SDS011;4749;51.398;5.466;2023-11-22T08:52:58;103.40;;;43.63;;
9420;SDS011;4749;51.398;5.466;2023-11-22T08:55:28;110.03;;;43.40;;
9420;SDS011;4749;51.398;5.466;2023-11-22T08:57:56;104.87;;;44.67;;
9420;SDS011;4749;51.398;5.466;2023-11-22T09:00:26;98.90;;;42.17;;
9420;SDS011;4749;51.398;5.466;2023-11-22T09:02:58;100.70;;;42.20;;
9420;SDS011;4749;51.398;5.466;2023-11-22T09:05:26;98.97;;;43.13;;
9420;SDS011;4749;51.398;5.466;2023-11-22T09:07:55;97.07;;;41.50;;
9420;SDS011;4749;51.398;5.466;2023-11-22T09:10:31;96.27;;;43.03;;
9420;SDS011;4749;51.398;5.466;2023-11-22T09:12:59;96.23;;;42.70;;
9420;SDS011;4749;51.398;5.466;2023-11-22T09:15:27;94.57;;;41.30;;
9420;SDS011;4749;51.398;5.466;2023-11-22T09:17:56;91.83;;;41.67;;
9420;SDS011;4749;51.398;5.466;2023-11-22T09:20:24;90.07;;;41.17;;
9420;SDS011;4749;51.398;5.466;2023-11-22T09:22:52;89.13;;;41.27;;
9420;SDS011;4749;51.398;5.466;2023-11-22T09:25:21;83.63;;;38.73;;
9420;SDS011;4749;51.398;5.466;2023-11-22T09:27:57;85.70;;;38.87;;
9420;SDS011;4749;51.398;5.466;2023-11-22T09:30:28;86.03;;;39.67;;
9420;SDS011;4749;51.398;5.466;2023-11-22T09:33:06;87.73;;;41.70;;
9420;SDS011;4749;51.398;5.466;2023-11-22T09:35:41;80.13;;;39.53;;
9420;SDS011;4749;51.398;5.466;2023-11-22T09:38:15;80.00;;;38.70;;
9420;SDS011;4749;51.398;5.466;2023-11-22T09:40:49;80.27;;;38.77;;
9420;SDS011;4749;51.398;5.466;2023-11-22T09:43:18;82.00;;;39.57;;
9420;SDS011;4749;51.398;5.466;2023-11-22T09:45:47;86.13;;;41.57;;
9420;SDS011;4749;51.398;5.466;2023-11-22T09:48:22;88.37;;;40.13;;
9420;SDS011;4749;51.398;5.466;2023-11-22T09:53:56;80.97;;;39.97;;
9420;SDS011;4749;51.398;5.466;2023-11-22T09:56:32;80.43;;;39.77;;
9420;SDS011;4749;51.398;5.466;2023-11-22T09:59:03;75.70;;;38.47;;
9420;SDS011;4749;51.398;5.466;2023-11-22T10:01:33;74.47;;;38.33;;
9420;SDS011;4749;51.398;5.466;2023-11-22T10:04:03;68.90;;;36.50;;
9420;SDS011;4749;51.398;5.466;2023-11-22T10:06:33;70.23;;;37.50;;
9420;SDS011;4749;51.398;5.466;2023-11-22T10:09:02;63.90;;;33.93;;
9420;SDS011;4749;51.398;5.466;2023-11-22T10:11:36;66.87;;;35.23;;
9420;SDS011;4749;51.398;5.466;2023-11-22T10:14:06;66.23;;;36.03;;
9420;SDS011;4749;51.398;5.466;2023-11-22T10:16:35;67.73;;;35.37;;
9420;SDS011;4749;51.398;5.466;2023-11-22T10:19:04;67.23;;;36.43;;
9420;SDS011;4749;51.398;5.466;2023-11-22T10:21:33;62.73;;;35.10;;
9420;SDS011;4749;51.398;5.466;2023-11-22T10:24:01;66.23;;;35.47;;
9420;SDS011;4749;51.398;5.466;2023-11-22T10:26:30;61.83;;;33.80;;
9420;SDS011;4749;51.398;5.466;2023-11-22T10:28:58;64.87;;;35.77;;
9420;SDS011;4749;51.398;5.466;2023-11-22T10:31:26;60.67;;;34.73;;
9420;SDS011;4749;51.398;5.466;2023-11-22T10:33:54;62.50;;;33.93;;
9420;SDS011;4749;51.398;5.466;2023-11-22T10:36:23;59.60;;;33.70;;
9420;SDS011;4749;51.398;5.466;2023-11-22T10:38:51;64.97;;;36.00;;
9420;SDS011;4749;51.398;5.466;2023-11-22T10:41:20;63.20;;;35.20;;
9420;SDS011;4749;51.398;5.466;2023-11-22T10:43:53;63.07;;;35.27;;
9420;SDS011;4749;51.398;5.466;2023-11-22T10:46:29;63.20;;;33.23;;
9420;SDS011;4749;51.398;5.466;2023-11-22T10:48:58;57.70;;;31.80;;
9420;SDS011;4749;51.398;5.466;2023-11-22T10:51:30;55.17;;;31.60;;
9420;SDS011;4749;51.398;5.466;2023-11-22T10:53:59;56.43;;;32.00;;
9420;SDS011;4749;51.398;5.466;2023-11-22T10:56:33;51.87;;;31.27;;
9420;SDS011;4749;51.398;5.466;2023-11-22T10:59:13;53.57;;;31.57;;
9420;SDS011;4749;51.398;5.466;2023-11-22T11:01:43;50.07;;;30.23;;
9420;SDS011;4749;51.398;5.466;2023-11-22T11:04:19;51.33;;;29.63;;
9420;SDS011;4749;51.398;5.466;2023-11-22T11:06:56;47.83;;;28.90;;
9420;SDS011;4749;51.398;5.466;2023-11-22T11:09:25;48.03;;;28.37;;
9420;SDS011;4749;51.398;5.466;2023-11-22T11:11:59;49.70;;;29.30;;
9420;SDS011;4749;51.398;5.466;2023-11-22T11:14:28;48.53;;;29.40;;
9420;SDS011;4749;51.398;5.466;2023-11-22T11:16:57;49.37;;;29.47;;
9420;SDS011;4749;51.398;5.466;2023-11-22T11:19:25;48.70;;;27.97;;
9420;SDS011;4749;51.398;5.466;2023-11-22T11:21:57;50.07;;;29.23;;
9420;SDS011;4749;51.398;5.466;2023-11-22T11:24:25;52.40;;;29.67;;
9420;SDS011;4749;51.398;5.466;2023-11-22T11:26:53;49.40;;;28.63;;
9420;SDS011;4749;51.398;5.466;2023-11-22T11:29:30;53.73;;;29.87;;
9420;SDS011;4749;51.398;5.466;2023-11-22T11:32:02;48.97;;;28.17;;
9420;SDS011;4749;51.398;5.466;2023-11-22T11:34:30;47.87;;;28.33;;
9420;SDS011;4749;51.398;5.466;2023-11-22T11:36:59;46.00;;;27.07;;
9420;SDS011;4749;51.398;5.466;2023-11-22T11:39:27;49.30;;;29.07;;
9420;SDS011;4749;51.398;5.466;2023-11-22T11:42:11;53.83;;;30.10;;
9420;SDS011;4749;51.398;5.466;2023-11-22T11:47:26;56.77;;;30.67;;
9420;SDS011;4749;51.398;5.466;2023-11-22T11:49:57;52.00;;;30.10;;
9420;SDS011;4749;51.398;5.466;2023-11-22T11:52:24;53.00;;;30.67;;
9420;SDS011;4749;51.398;5.466;2023-11-22T11:54:52;53.30;;;31.43;;
9420;SDS011;4749;51.398;5.466;2023-11-22T11:57:20;53.90;;;30.13;;
9420;SDS011;4749;51.398;5.466;2023-11-22T11:59:48;55.70;;;33.17;;
9420;SDS011;4749;51.398;5.466;2023-11-22T12:02:17;55.87;;;32.57;;
9420;SDS011;4749;51.398;5.466;2023-11-22T12:04:46;57.13;;;33.70;;
9420;SDS011;4749;51.398;5.466;2023-11-22T12:07:14;65.57;;;36.50;;
9420;SDS011;4749;51.398;5.466;2023-11-22T12:09:42;61.03;;;35.97;;
9420;SDS011;4749;51.398;5.466;2023-11-22T12:12:10;61.57;;;36.43;;
9420;SDS011;4749;51.398;5.466;2023-11-22T12:14:38;60.95;;;35.30;;
9420;SDS011;4749;51.398;5.466;2023-11-22T12:17:06;53.03;;;32.17;;
9420;SDS011;4749;51.398;5.466;2023-11-22T12:19:35;53.13;;;30.80;;
9420;SDS011;4749;51.398;5.466;2023-11-22T12:22:06;52.70;;;29.27;;
9420;SDS011;4749;51.398;5.466;2023-11-22T12:24:35;50.47;;;28.63;;
9420;SDS011;4749;51.398;5.466;2023-11-22T12:27:09;48.00;;;28.90;;
9420;SDS011;4749;51.398;5.466;2023-11-22T12:29:37;51.03;;;28.80;;
9420;SDS011;4749;51.398;5.466;2023-11-22T12:32:06;48.17;;;28.23;;
9420;SDS011;4749;51.398;5.466;2023-11-22T12:34:33;47.33;;;26.80;;
9420;SDS011;4749;51.398;5.466;2023-11-22T12:37:01;48.27;;;27.90;;
9420;SDS011;4749;51.398;5.466;2023-11-22T12:39:29;47.27;;;27.27;;
9420;SDS011;4749;51.398;5.466;2023-11-22T12:41:58;43.23;;;25.83;;
9420;SDS011;4749;51.398;5.466;2023-11-22T12:44:46;44.97;;;26.73;;
9420;SDS011;4749;51.398;5.466;2023-11-22T12:47:31;45.37;;;27.23;;
9420;SDS011;4749;51.398;5.466;2023-11-22T12:50:02;46.50;;;26.13;;
9420;SDS011;4749;51.398;5.466;2023-11-22T12:52:33;43.60;;;24.43;;
9420;SDS011;4749;51.398;5.466;2023-11-22T12:55:00;42.40;;;24.27;;
9420;SDS011;4749;51.398;5.466;2023-11-22T12:57:30;43.93;;;25.80;;
9420;SDS011;4749;51.398;5.466;2023-11-22T13:00:00;39.33;;;24.10;;
9420;SDS011;4749;51.398;5.466;2023-11-22T13:02:27;35.53;;;21.90;;
9420;SDS011;4749;51.398;5.466;2023-11-22T13:04:59;35.20;;;20.63;;
9420;SDS011;4749;51.398;5.466;2023-11-22T13:07:27;35.70;;;21.27;;
9420;SDS011;4749;51.398;5.466;2023-11-22T13:09:55;32.50;;;20.47;;
9420;SDS011;4749;51.398;5.466;2023-11-22T13:12:22;32.30;;;20.23;;
9420;SDS011;4749;51.398;5.466;2023-11-22T13:14:51;35.83;;;21.10;;
9420;SDS011;4749;51.398;5.466;2023-11-22T13:17:19;35.07;;;20.87;;
9420;SDS011;4749;51.398;5.466;2023-11-22T13:19:46;34.97;;;21.27;;
9420;SDS011;4749;51.398;5.466;2023-11-22T13:22:15;34.07;;;21.03;;
9420;SDS011;4749;51.398;5.466;2023-11-22T13:24:43;36.13;;;20.73;;
9420;SDS011;4749;51.398;5.466;2023-11-22T13:27:10;32.73;;;20.53;;
9420;SDS011;4749;51.398;5.466;2023-11-22T13:29:38;33.53;;;20.17;;
9420;SDS011;4749;51.398;5.466;2023-11-22T13:32:05;34.70;;;20.03;;
9420;SDS011;4749;51.398;5.466;2023-11-22T13:34:34;34.23;;;20.60;;
9420;SDS011;4749;51.398;5.466;2023-11-22T13:37:02;34.93;;;20.03;;
9420;SDS011;4749;51.398;5.466;2023-11-22T13:39:34;37.73;;;21.50;;
9420;SDS011;4749;51.398;5.466;2023-11-22T13:42:02;33.13;;;20.47;;
9420;SDS011;4749;51.398;5.466;2023-11-22T13:44:30;37.83;;;22.07;;
9420;SDS011;4749;51.398;5.466;2023-11-22T13:46:58;39.33;;;21.67;;
9420;SDS011;4749;51.398;5.466;2023-11-22T13:49:26;38.50;;;22.40;;
9420;SDS011;4749;51.398;5.466;2023-11-22T13:51:53;37.50;;;23.07;;
9420;SDS011;4749;51.398;5.466;2023-11-22T13:54:22;38.23;;;22.20;;
9420;SDS011;4749;51.398;5.466;2023-11-22T13:56:49;38.63;;;23.27;;
9420;SDS011;4749;51.398;5.466;2023-11-22T13:59:17;35.13;;;22.03;;
9420;SDS011;4749;51.398;5.466;2023-11-22T14:01:45;42.63;;;23.43;;
9420;SDS011;4749;51.398;5.466;2023-11-22T14:04:16;40.23;;;22.37;;
9420;SDS011;4749;51.398;5.466;2023-11-22T14:06:44;41.20;;;24.73;;
9420;SDS011;4749;51.398;5.466;2023-11-22T14:09:13;41.37;;;24.93;;
9420;SDS011;4749;51.398;5.466;2023-11-22T14:11:41;40.43;;;24.03;;
9420;SDS011;4749;51.398;5.466;2023-11-22T14:14:08;42.77;;;23.97;;
9420;SDS011;4749;51.398;5.466;2023-11-22T14:16:39;44.10;;;26.37;;
9420;SDS011;4749;51.398;5.466;2023-11-22T14:19:12;45.77;;;25.27;;
9420;SDS011;4749;51.398;5.466;2023-11-22T14:21:39;42.83;;;26.27;;
9420;SDS011;4749;51.398;5.466;2023-11-22T14:24:07;49.93;;;26.17;;
9420;SDS011;4749;51.398;5.466;2023-11-22T14:26:34;47.43;;;25.63;;
9420;SDS011;4749;51.398;5.466;2023-11-22T14:29:03;45.53;;;25.33;;
9420;SDS011;4749;51.398;5.466;2023-11-22T14:31:31;43.30;;;25.53;;
9420;SDS011;4749;51.398;5.466;2023-11-22T14:33:59;45.97;;;26.37;;
9420;SDS011;4749;51.398;5.466;2023-11-22T14:36:30;49.30;;;26.03;;
9420;SDS011;4749;51.398;5.466;2023-11-22T14:38:57;51.43;;;28.27;;
9420;SDS011;4749;51.398;5.466;2023-11-22T14:41:25;48.50;;;27.83;;
9420;SDS011;4749;51.398;5.466;2023-11-22T14:43:53;48.77;;;27.13;;
9420;SDS011;4749;51.398;5.466;2023-11-22T14:46:22;51.77;;;26.83;;
9420;SDS011;4749;51.398;5.466;2023-11-22T14:48:51;50.37;;;27.07;;
9420;SDS011;4749;51.398;5.466;2023-11-22T14:51:20;52.93;;;28.23;;
9420;SDS011;4749;51.398;5.466;2023-11-22T14:53:48;52.80;;;29.27;;
9420;SDS011;4749;51.398;5.466;2023-11-22T14:56:16;52.20;;;29.03;;
9420;SDS011;4749;51.398;5.466;2023-11-22T14:58:43;52.80;;;29.40;;
9420;SDS011;4749;51.398;5.466;2023-11-22T15:01:20;53.83;;;29.40;;